Time;durP1;ratioP1;P1;durP2;ratioP2;P2;SDS_P1;SDS_P2;PMS_P1;PMS_P2;Temp;Humidity;BMP_temperature;BMP_pressure;BME280_temperature;BME280_humidity;BME280_pressure;Samples;Min_cycle;Max_cycle;Signal;HPM_P1;HPM_P2
2023/04/30 06:46:39;;;;;;;3.72;2.20;;;;;;;10.83;73.73;102489.91;4972687;28;116963;-30
2023/04/30 06:49:05;;;;;;;4.03;1.67;;;;;;;10.92;73.18;102488.72;4973536;28;99685;-30
2023/04/30 06:51:30;;;;;;;5.20;2.38;;;;;;;10.95;73.17;102485.88;4975178;28;99218;-31
2023/04/30 06:53:55;;;;;;;3.70;2.10;;;;;;;11.14;72.37;102490.63;4974164;28;97078;-31
2023/04/30 06:56:21;;;;;;;2.88;1.77;;;;;;;11.31;72.34;102488.16;4975321;28;96819;-31
2023/04/30 06:58:46;;;;;;;2.42;1.95;;;;;;;11.38;71.86;102492.41;4974244;28;97482;-30
2023/04/30 07:01:12;;;;;;;5.55;1.88;;;;;;;11.47;71.58;102494.75;4975111;28;97821;-31
2023/04/30 07:03:37;;;;;;;6.07;2.15;;;;;;;11.64;71.67;102496.81;4975284;28;96667;-30
2023/04/30 07:06:03;;;;;;;4.35;2.40;;;;;;;11.74;71.28;102497.31;4975203;28;96735;-31
2023/04/30 07:08:28;;;;;;;3.60;1.92;;;;;;;11.90;70.96;102494.91;4973395;28;99497;-30
2023/04/30 07:10:54;;;;;;;3.67;2.20;;;;;;;12.09;70.29;102489.63;4973482;28;98716;-30
2023/04/30 07:13:19;;;;;;;3.80;2.17;;;;;;;12.32;69.72;102494.06;4975265;28;96648;-30
2023/04/30 07:15:44;;;;;;;4.38;2.17;;;;;;;12.44;69.59;102498.09;4975461;28;96831;-32
2023/04/30 07:18:10;;;;;;;3.25;2.10;;;;;;;12.47;69.42;102497.97;4974349;28;99157;-31
2023/04/30 07:20:35;;;;;;;3.20;1.95;;;;;;;12.61;68.88;102506.44;4974795;28;97807;-31
2023/04/30 07:23:01;;;;;;;4.28;2.35;;;;;;;12.67;68.87;102497.97;4974577;28;96695;-32
2023/04/30 07:25:26;;;;;;;8.30;2.40;;;;;;;12.78;68.52;102492.09;4975048;28;96783;-30
2023/04/30 07:27:52;;;;;;;3.67;2.40;;;;;;;12.84;68.17;102499.94;4974805;28;96767;-31
2023/04/30 07:30:17;;;;;;;2.78;1.95;;;;;;;12.89;68.55;102500.63;4972957;28;98919;-30
2023/04/30 07:32:43;;;;;;;4.00;2.30;;;;;;;13.07;68.19;102495.31;4974718;28;96686;-31
2023/04/30 07:35:08;;;;;;;4.82;2.40;;;;;;;13.29;67.74;102501.56;4974612;28;96858;-30
2023/04/30 07:37:34;;;;;;;3.20;1.90;;;;;;;13.27;66.86;102502.56;4974295;28;99224;-30
2023/04/30 07:39:59;;;;;;;3.33;1.92;;;;;;;13.26;67.60;102498.97;4974749;28;99404;-31
2023/04/30 07:42:25;;;;;;;5.05;2.22;;;;;;;13.36;67.42;102502.19;4974562;28;96630;-31
2023/04/30 07:44:51;;;;;;;3.58;2.10;;;;;;;13.55;67.12;102503.06;4974739;28;96759;-32
2023/04/30 07:47:17;;;;;;;3.08;1.90;;;;;;;13.76;66.86;102503.88;4973740;28;98033;-31
2023/04/30 07:49:42;;;;;;;4.70;2.05;;;;;;;13.90;66.36;102496.91;4974134;28;99321;-31
2023/04/30 07:52:09;;;;;;;3.90;2.00;;;;;;;14.07;65.98;102499.66;4974505;28;96552;-31
2023/04/30 07:54:37;;;;;;;3.35;1.75;;;;;;;14.20;65.80;102498.06;4974549;28;96730;-30
2023/04/30 07:57:03;;;;;;;3.67;2.13;;;;;;;14.41;65.17;102496.09;4972482;28;101212;-31
2023/04/30 07:59:28;;;;;;;5.40;2.05;;;;;;;14.58;65.09;102494.38;4972891;28;100747;-31
2023/04/30 08:01:54;;;;;;;5.63;2.38;;;;;;;14.72;64.84;102497.25;4974580;28;96755;-30
2023/04/30 08:04:19;;;;;;;4.10;2.33;;;;;;;14.78;63.91;102490.63;4975129;28;96795;-30
2023/04/30 08:06:44;;;;;;;4.72;2.67;;;;;;;14.87;64.07;102495.56;4974285;28;97982;-31
2023/04/30 08:09:10;;;;;;;5.95;2.53;;;;;;;15.02;63.67;102493.88;4974571;28;97304;-31
2023/04/30 08:11:35;;;;;;;3.50;2.08;;;;;;;15.03;62.94;102493.78;4975234;28;96496;-32
2023/04/30 08:14:00;;;;;;;3.83;2.33;;;;;;;15.14;63.39;102495.94;4977616;28;96906;-30
2023/04/30 08:16:26;;;;;;;3.72;2.15;;;;;;;15.37;63.23;102485.59;4977248;28;103847;-30
2023/04/30 08:18:51;;;;;;;5.65;2.92;;;;;;;15.38;62.89;102496.44;4977277;28;97237;-30
2023/04/30 08:21:17;;;;;;;4.88;2.55;;;;;;;15.49;62.25;102493.09;4977924;28;96509;-30
2023/04/30 08:23:42;;;;;;;4.32;2.00;;;;;;;15.55;62.84;102484.56;4977551;28;96859;-31
2023/04/30 08:26:08;;;;;;;4.78;2.45;;;;;;;15.66;62.44;102484.84;4977244;28;99259;-29
2023/04/30 08:28:33;;;;;;;3.60;1.85;;;;;;;15.84;61.70;102498.47;4977788;28;97645;-30
2023/04/30 08:30:58;;;;;;;3.60;2.00;;;;;;;15.85;60.95;102489.28;4977451;28;96998;-31
2023/04/30 08:33:24;;;;;;;4.43;2.30;;;;;;;16.04;61.35;102491.81;4977327;28;96844;-31
2023/04/30 08:35:49;;;;;;;4.45;2.20;;;;;;;16.16;60.92;102490.22;4976528;28;99459;-32
2023/04/30 08:38:15;;;;;;;3.95;2.17;;;;;;;16.30;60.39;102493.03;4976924;28;99380;-30
2023/04/30 08:40:43;;;;;;;4.13;2.53;;;;;;;16.28;60.41;102492.22;4977656;28;96846;-32
2023/04/30 08:43:10;;;;;;;4.80;2.55;;;;;;;16.34;60.67;102491.88;4976043;28;96881;-30
2023/04/30 08:45:36;;;;;;;3.58;2.10;;;;;;;16.44;60.59;102490.34;4976596;28;98127;-30
2023/04/30 08:48:03;;;;;;;4.93;2.35;;;;;;;16.54;59.04;102491.56;4976332;28;96527;-31
2023/04/30 08:50:30;;;;;;;4.75;2.03;;;;;;;16.51;57.99;102486.25;4977354;28;96429;-31
2023/04/30 08:52:57;;;;;;;3.85;2.00;;;;;;;16.52;59.84;102489.91;4976175;28;96475;-30
2023/04/30 08:55:25;;;;;;;3.50;2.05;;;;;;;16.52;59.40;102489.91;4976759;28;97462;-30
2023/04/30 08:57:52;;;;;;;5.15;2.13;;;;;;;16.61;60.11;102491.19;4976716;28;97882;-31
2023/04/30 09:00:18;;;;;;;3.28;1.52;;;;;;;16.68;57.33;102485.25;4976426;28;97842;-30
2023/04/30 09:02:45;;;;;;;2.83;1.90;;;;;;;16.80;58.57;102494.59;4977268;28;96806;-31
2023/04/30 09:05:12;;;;;;;3.65;1.80;;;;;;;16.97;57.84;102483.50;4975169;28;100156;-31
2023/04/30 09:07:41;;;;;;;3.35;2.03;;;;;;;17.12;58.42;102498.06;4976706;28;97211;-32
2023/04/30 09:10:27;;;;;;;3.33;1.80;;;;;;;17.09;57.41;102497.38;4975457;28;96887;-32
2023/04/30 09:13:00;;;;;;;3.75;2.00;;;;;;;17.13;58.19;102493.47;4976222;28;96583;-30
2023/04/30 09:15:26;;;;;;;2.65;1.73;;;;;;;17.29;56.79;102493.38;4974981;28;100947;-30
2023/04/30 09:18:11;;;;;;;3.20;2.13;;;;;;;17.20;57.15;102486.63;4977032;28;97457;-31
2023/04/30 09:20:52;;;;;;;3.53;1.92;;;;;;;17.07;56.99;102488.41;4976823;28;96539;-30
2023/04/30 09:23:17;;;;;;;3.30;2.08;;;;;;;17.09;57.30;102500.09;4975097;28;96809;-31
2023/04/30 09:25:43;;;;;;;3.30;1.92;;;;;;;17.19;57.12;102488.50;4976163;28;97339;-30
2023/04/30 09:28:10;;;;;;;2.75;1.67;;;;;;;17.50;55.95;102491.13;4976571;28;97816;-31
2023/04/30 09:30:35;;;;;;;3.03;1.77;;;;;;;17.64;56.33;102482.91;4974930;28;96874;-31
2023/04/30 09:33:01;;;;;;;4.18;2.00;;;;;;;17.66;55.20;102478.16;4976381;28;96858;-32
2023/04/30 09:35:31;;;;;;;5.10;1.98;;;;;;;17.75;56.23;102474.81;4976351;28;97453;-30
2023/04/30 09:37:59;;;;;;;3.90;1.65;;;;;;;17.98;54.28;102481.56;4974691;28;100707;-29
2023/04/30 09:40:36;;;;;;;4.85;2.35;;;;;;;18.19;54.21;102476.50;4975135;28;96574;-30
2023/04/30 09:43:02;;;;;;;5.45;2.17;;;;;;;18.14;54.34;102478.69;4976608;28;96774;-30
2023/04/30 09:45:51;;;;;;;3.42;1.85;;;;;;;18.15;53.40;102474.94;4974582;28;101060;-30
2023/04/30 09:48:21;;;;;;;2.35;1.67;;;;;;;18.24;54.48;102477.06;4975681;28;98667;-31
2023/04/30 09:50:48;;;;;;;4.47;2.33;;;;;;;18.20;53.49;102467.28;4974424;28;96701;-31
2023/04/30 09:53:16;;;;;;;3.88;2.15;;;;;;;18.30;54.64;102463.91;4974757;28;96855;-30
2023/04/30 09:55:44;;;;;;;4.93;2.78;;;;;;;18.51;53.23;102458.81;4974143;28;101037;-30
2023/04/30 09:58:11;;;;;;;4.80;2.30;;;;;;;18.65;54.44;102459.59;4974485;28;100781;-30
2023/04/30 10:00:40;;;;;;;4.18;2.20;;;;;;;18.85;53.18;102463.75;4974695;28;96471;-31
2023/04/30 10:03:10;;;;;;;4.05;2.33;;;;;;;18.82;52.97;102468.56;4974699;28;96989;-30
2023/04/30 10:05:41;;;;;;;3.72;1.90;;;;;;;18.94;53.27;102456.69;4975576;28;98960;-30
2023/04/30 10:08:15;;;;;;;5.97;2.23;;;;;;;19.10;53.37;102451.88;4974689;28;101388;-32
2023/04/30 10:10:44;;;;;;;3.85;1.98;;;;;;;19.01;53.32;102454.41;4974638;28;96640;-30
2023/04/30 10:13:16;;;;;;;4.40;2.58;;;;;;;19.07;53.29;102448.47;4974230;28;96828;-30
2023/04/30 10:15:48;;;;;;;5.65;2.25;;;;;;;19.25;53.25;102452.63;4974905;28;99723;-30
2023/04/30 10:18:25;;;;;;;4.22;2.22;;;;;;;19.39;52.51;102453.50;4974057;28;100868;-30
2023/04/30 10:20:53;;;;;;;4.03;2.50;;;;;;;19.46;52.54;102452.91;4975688;28;96565;-31
2023/04/30 10:23:20;;;;;;;3.30;1.88;;;;;;;19.59;52.89;102446.50;4975799;28;96813;-31
2023/04/30 10:25:46;;;;;;;3.30;1.98;;;;;;;19.70;52.45;102444.75;4973877;28;101198;-32
2023/04/30 10:28:11;;;;;;;2.97;1.88;;;;;;;19.78;52.06;102451.53;4975811;28;97257;-32
2023/04/30 10:30:38;;;;;;;3.55;2.08;;;;;;;19.81;51.99;102443.97;4975484;28;96735;-32
2023/04/30 10:33:24;;;;;;;2.80;1.83;;;;;;;19.78;50.45;102446.03;4974665;28;96894;-31
2023/04/30 10:35:57;;;;;;;4.95;2.00;;;;;;;19.69;50.99;102437.50;4973565;28;101461;-30
2023/04/30 10:38:25;;;;;;;2.88;1.70;;;;;;;19.73;50.16;102433.53;4973834;28;101089;-31
2023/04/30 10:40:56;;;;;;;4.75;1.63;;;;;;;19.88;52.02;102434.25;4973619;28;96702;-31
2023/04/30 10:43:26;;;;;;;2.80;1.30;;;;;;;19.91;50.62;102427.63;4974191;28;96833;-31
2023/04/30 10:45:51;;;;;;;3.58;1.80;;;;;;;19.98;51.79;102422.56;4973110;28;101160;-31
2023/04/30 10:48:25;;;;;;;3.92;1.77;;;;;;;19.93;49.61;102432.03;4974956;28;99289;-31
2023/04/30 10:50:54;;;;;;;2.75;1.42;;;;;;;19.91;49.76;102430.38;4975537;28;96822;-32
2023/04/30 10:53:21;;;;;;;3.13;1.75;;;;;;;19.99;51.12;102421.53;4973886;28;96917;-31
2023/04/30 10:55:57;;;;;;;2.63;1.60;;;;;;;20.18;50.80;102418.25;4973527;28;100678;-32
2023/04/30 10:58:23;;;;;;;2.05;1.33;;;;;;;20.28;50.61;102417.41;4975101;28;101080;-31
2023/04/30 11:01:07;;;;;;;3.40;1.73;;;;;;;20.21;50.57;102405.13;4973887;28;96598;-31
2023/04/30 11:03:34;;;;;;;3.25;1.40;;;;;;;20.30;50.67;102398.03;4975410;28;96795;-31
2023/04/30 11:06:06;;;;;;;2.00;1.50;;;;;;;20.32;48.85;102396.03;4974266;28;99194;-31
2023/04/30 11:08:36;;;;;;;7.28;1.85;;;;;;;20.26;49.08;102389.16;4973614;28;101074;-31
2023/04/30 11:11:03;;;;;;;2.53;1.65;;;;;;;20.30;50.39;102389.78;4973725;28;96633;-31
2023/04/30 11:13:39;;;;;;;3.92;1.73;;;;;;;20.29;49.33;102386.16;4973549;28;96843;-31
2023/04/30 11:16:05;;;;;;;4.72;1.95;;;;;;;20.26;50.34;102383.66;4973458;28;100952;-32
2023/04/30 11:18:30;;;;;;;3.42;1.70;;;;;;;20.31;50.06;102381.41;4974712;28;97224;-31
2023/04/30 11:20:56;;;;;;;4.15;1.73;;;;;;;20.43;50.04;102384.22;4974844;28;96882;-33
2023/04/30 11:23:24;;;;;;;3.72;1.98;;;;;;;20.42;49.70;102374.19;4975251;28;96967;-31
2023/04/30 11:25:53;;;;;;;2.00;1.40;;;;;;;20.46;48.86;102371.06;4973207;28;101084;-31
2023/04/30 11:28:24;;;;;;;3.10;1.90;;;;;;;20.42;48.17;102372.28;4973043;28;101051;-31
2023/04/30 11:30:57;;;;;;;4.07;1.90;;;;;;;20.36;49.08;102367.28;4972892;28;96541;-31
2023/04/30 11:33:25;;;;;;;4.72;2.05;;;;;;;20.44;49.26;102372.19;4973424;28;96831;-31
2023/04/30 11:35:52;;;;;;;3.08;1.98;;;;;;;20.52;49.75;102361.41;4974572;28;98174;-30
2023/04/30 11:38:25;;;;;;;4.15;2.13;;;;;;;20.63;49.61;102361.47;4974153;28;99200;-31
2023/04/30 11:40:51;;;;;;;4.35;2.13;;;;;;;20.70;48.54;102360.00;4974536;28;97850;-31
2023/04/30 11:43:30;;;;;;;3.72;2.25;;;;;;;20.58;47.40;102348.09;4974795;28;97133;-31
2023/04/30 11:46:04;;;;;;;3.45;1.63;;;;;;;20.49;47.62;102347.91;4975466;28;99616;-31
2023/04/30 11:48:34;;;;;;;3.03;1.92;;;;;;;20.61;48.58;102341.44;4978196;28;99213;-31
2023/04/30 11:51:22;;;;;;;3.42;1.92;;;;;;;20.68;48.87;102339.97;4977950;28;96488;-32
2023/04/30 11:53:50;;;;;;;3.75;2.08;;;;;;;20.79;48.39;102339.97;4978182;28;96724;-31
2023/04/30 11:56:24;;;;;;;3.33;1.88;;;;;;;20.76;47.17;102333.81;4975697;28;101124;-31
2023/04/30 11:58:51;;;;;;;4.20;2.35;;;;;;;20.87;49.08;102335.72;4977864;28;97953;-31
2023/04/30 12:01:18;;;;;;;4.47;2.08;;;;;;;20.89;48.72;102328.22;4976662;28;96672;-31
2023/04/30 12:03:47;;;;;;;4.00;2.42;;;;;;;21.02;47.78;102334.44;4977606;28;96913;-31
2023/04/30 12:06:23;;;;;;;4.55;2.13;;;;;;;21.09;47.39;102330.19;4976142;28;99059;-31
2023/04/30 12:08:52;;;;;;;6.40;2.35;;;;;;;21.13;48.19;102328.94;4976222;28;101249;-31
2023/04/30 12:11:26;;;;;;;4.18;2.20;;;;;;;20.98;47.26;102328.31;4976439;28;96632;-33
2023/04/30 12:14:13;;;;;;;4.03;2.47;;;;;;;20.94;45.78;102320.44;4976743;28;96922;-32
2023/04/30 12:16:44;;;;;;;4.10;2.15;;;;;;;20.98;47.42;102325.56;4977658;28;97990;-31
2023/04/30 12:19:14;;;;;;;4.35;2.55;;;;;;;20.86;46.94;102321.06;4976007;28;98986;-31
2023/04/30 12:21:43;;;;;;;3.13;1.83;;;;;;;21.05;48.39;102314.94;4975949;28;96864;-31
2023/04/30 12:24:10;;;;;;;3.85;2.08;;;;;;;21.12;47.57;102312.53;4976201;28;96849;-33
2023/04/30 12:26:38;;;;;;;2.85;1.63;;;;;;;20.98;46.57;102319.19;4975906;28;100957;-32
2023/04/30 12:29:07;;;;;;;2.67;1.83;;;;;;;21.09;46.94;102310.88;4975839;28;101479;-32
2023/04/30 12:31:32;;;;;;;3.25;1.73;;;;;;;21.39;47.07;102314.84;4975835;28;96635;-32
2023/04/30 12:34:03;;;;;;;3.97;2.25;;;;;;;21.36;46.70;102316.00;4977602;28;96809;-31
2023/04/30 12:36:30;;;;;;;4.43;2.28;;;;;;;21.23;47.39;102301.47;4975783;28;101310;-31
2023/04/30 12:39:03;;;;;;;3.50;2.20;;;;;;;21.15;47.19;102302.13;4976040;28;101051;-31
2023/04/30 12:41:28;;;;;;;4.28;1.77;;;;;;;21.19;45.78;102292.59;4976131;28;96576;-31
2023/04/30 12:44:16;;;;;;;3.40;1.83;;;;;;;21.06;45.47;102302.88;4977305;28;96847;-32
2023/04/30 12:46:42;;;;;;;2.95;1.63;;;;;;;21.12;46.57;102288.63;4974541;28;101274;-31
2023/04/30 12:49:07;;;;;;;3.15;1.55;;;;;;;21.04;47.50;102280.09;4975550;28;100860;-31
2023/04/30 12:51:39;;;;;;;2.72;1.45;;;;;;;21.19;46.62;102281.59;4977244;28;96754;-31
2023/04/30 12:54:04;;;;;;;3.08;1.40;;;;;;;21.18;46.11;102282.56;4977619;28;96821;-31
2023/04/30 12:56:30;;;;;;;2.00;1.20;;;;;;;21.16;46.32;102286.47;4976564;28;97980;-31
2023/04/30 12:58:55;;;;;;;2.20;1.38;;;;;;;21.27;45.59;102286.44;4976568;28;97932;-32
2023/04/30 13:01:24;;;;;;;2.58;1.50;;;;;;;21.25;46.26;102282.94;4976864;28;96724;-31
2023/04/30 13:03:51;;;;;;;4.18;1.65;;;;;;;21.29;46.12;102286.31;4975885;28;97345;-31
2023/04/30 13:06:16;;;;;;;1.50;1.13;;;;;;;20.93;45.69;102293.91;4975238;28;101125;-31
2023/04/30 13:08:43;;;;;;;2.13;1.23;;;;;;;20.77;46.80;102281.38;4976499;28;99300;-31
2023/04/30 13:11:09;;;;;;;1.58;1.05;;;;;;;20.82;47.24;102271.88;4975139;28;96571;-31
2023/04/30 13:13:34;;;;;;;3.00;1.50;;;;;;;20.71;46.41;102279.16;4976953;28;96815;-32
2023/04/30 13:15:59;;;;;;;2.25;1.40;;;;;;;20.65;46.80;102270.50;4976633;28;97313;-31
2023/04/30 13:18:25;;;;;;;1.48;1.17;;;;;;;20.68;45.97;102271.13;4976556;28;97325;-32
2023/04/30 13:20:51;;;;;;;4.65;1.30;;;;;;;20.37;46.49;102279.06;4976745;28;96474;-31
2023/04/30 13:23:17;;;;;;;1.83;1.30;;;;;;;20.18;46.69;102254.03;4975424;28;97113;-31
2023/04/30 13:25:42;;;;;;;1.58;1.13;;;;;;;20.19;47.01;102261.31;4976327;28;98033;-31
2023/04/30 13:28:08;;;;;;;1.50;1.13;;;;;;;20.26;45.51;102259.81;4976507;28;99283;-32
2023/04/30 13:30:34;;;;;;;1.65;1.05;;;;;;;20.26;46.41;102256.16;4976733;28;96678;-31
2023/04/30 13:33:00;;;;;;;3.15;1.15;;;;;;;20.14;45.42;102253.41;4975279;28;96950;-32
2023/04/30 13:35:26;;;;;;;1.90;1.08;;;;;;;20.10;46.62;102253.78;4975571;28;99279;-31
2023/04/30 13:37:52;;;;;;;1.48;1.08;;;;;;;19.88;45.81;102249.97;4975908;28;98786;-31
2023/04/30 13:40:18;;;;;;;1.30;1.00;;;;;;;19.84;45.32;102239.34;4975022;28;96634;-31
2023/04/30 13:42:45;;;;;;;2.28;1.00;;;;;;;20.03;45.39;102247.88;4975092;28;96741;-31
2023/04/30 13:45:11;;;;;;;1.80;1.20;;;;;;;19.82;46.31;102241.34;4974769;28;100901;-32
2023/04/30 13:47:37;;;;;;;2.47;1.20;;;;;;;19.97;46.62;102237.34;4975729;28;98379;-31
2023/04/30 13:50:03;;;;;;;2.58;1.40;;;;;;;20.08;46.48;102239.28;4974648;28;96703;-33
2023/04/30 13:52:28;;;;;;;3.00;1.42;;;;;;;19.93;46.34;102236.75;4975224;28;96832;-31
2023/04/30 13:54:54;;;;;;;5.32;3.22;;;;;;;19.86;46.23;102232.72;4975978;28;97904;-32
2023/04/30 13:57:19;;;;;;;2.85;1.98;;;;;;;19.82;46.03;102230.34;4975838;28;97776;-31
2023/04/30 13:59:44;;;;;;;1.65;1.10;;;;;;;19.80;46.59;102232.31;4975648;28;96686;-32
2023/04/30 14:02:10;;;;;;;1.55;0.95;;;;;;;20.02;47.32;102228.75;4976112;28;96883;-31
2023/04/30 14:04:37;;;;;;;1.83;1.10;;;;;;;19.97;45.22;102230.97;4975319;28;99757;-31
2023/04/30 14:07:03;;;;;;;2.03;1.10;;;;;;;19.93;45.96;102230.38;4974423;28;99162;-31
2023/04/30 14:09:28;;;;;;;1.02;0.77;;;;;;;20.02;46.48;102218.63;4975093;28;96431;-31
2023/04/30 14:11:57;;;;;;;2.08;1.10;;;;;;;20.09;46.09;102224.50;4976064;28;96815;-31
2023/04/30 14:14:26;;;;;;;2.05;1.10;;;;;;;20.02;46.71;102213.13;4974173;28;101629;-32
2023/04/30 14:16:51;;;;;;;2.60;1.13;;;;;;;20.06;46.05;102220.13;4975750;28;99479;-31
2023/04/30 14:19:17;;;;;;;1.35;0.98;;;;;;;20.02;45.31;102204.88;4975851;28;96693;-31
2023/04/30 14:21:43;;;;;;;2.08;1.15;;;;;;;20.05;46.34;102212.88;4974470;28;96893;-31
2023/04/30 14:24:11;;;;;;;2.75;1.25;;;;;;;19.97;44.93;102204.34;4975090;28;97407;-31
2023/04/30 14:26:37;;;;;;;1.98;1.10;;;;;;;19.90;46.21;102200.34;4974064;28;100981;-33
2023/04/30 14:29:02;;;;;;;1.58;0.80;;;;;;;20.06;46.00;102202.75;4975735;28;96532;-33
2023/04/30 14:31:27;;;;;;;3.33;1.05;;;;;;;20.06;45.06;102194.50;4975383;28;96925;-33
2023/04/30 14:33:53;;;;;;;2.25;1.20;;;;;;;20.04;45.75;102207.50;4975551;28;97698;-32
2023/04/30 14:36:18;;;;;;;2.53;1.08;;;;;;;19.94;46.03;102199.97;4975499;28;97757;-31
2023/04/30 14:38:43;;;;;;;1.23;0.88;;;;;;;20.02;45.96;102196.63;4975692;28;96591;-31
2023/04/30 14:41:09;;;;;;;1.65;0.98;;;;;;;20.05;45.45;102209.25;4975993;28;96786;-33
2023/04/30 14:43:34;;;;;;;1.92;0.98;;;;;;;19.96;44.65;102204.50;4975222;28;98006;-32
2023/04/30 14:45:59;;;;;;;1.33;0.98;;;;;;;19.81;44.74;102206.59;4974714;28;97450;-33
2023/04/30 14:48:25;;;;;;;1.60;0.95;;;;;;;19.60;45.91;102196.25;4974894;28;96786;-34
2023/04/30 14:50:51;;;;;;;9.38;3.80;;;;;;;19.62;46.60;102185.13;4974113;28;96847;-31
2023/04/30 14:53:16;;;;;;;9.50;3.33;;;;;;;19.67;46.11;102185.66;4975170;28;97900;-31
2023/04/30 14:55:42;;;;;;;3.75;2.03;;;;;;;19.79;46.37;102184.72;4974867;28;97821;-31
2023/04/30 14:58:07;;;;;;;2.47;1.60;;;;;;;19.65;45.70;102184.88;4975121;28;96615;-33
2023/04/30 15:00:32;;;;;;;12.90;6.05;;;;;;;19.70;46.52;102177.19;4975192;28;96915;-31
2023/04/30 15:02:58;;;;;;;4.65;2.33;;;;;;;19.80;46.78;102183.69;4975153;28;97886;-31
2023/04/30 15:05:24;;;;;;;2.03;1.25;;;;;;;19.73;45.84;102182.44;4973948;28;100609;-31
2023/04/30 15:07:50;;;;;;;3.92;1.80;;;;;;;19.50;45.74;102174.09;4975254;28;96391;-31
2023/04/30 15:10:16;;;;;;;1.90;1.15;;;;;;;19.38;45.97;102169.56;4975278;28;96757;-32
2023/04/30 15:12:41;;;;;;;1.70;0.90;;;;;;;19.16;46.40;102163.97;4973076;28;100968;-32
2023/04/30 15:15:07;;;;;;;2.42;0.82;;;;;;;19.22;46.02;102158.88;4974988;28;97954;-33
2023/04/30 15:17:35;;;;;;;0.52;0.47;;;;;;;19.15;46.40;102151.25;4973771;28;96616;-31
2023/04/30 15:20:04;;;;;;;1.17;0.80;;;;;;;19.23;45.84;102160.63;4974564;28;96881;-31
2023/04/30 15:22:30;;;;;;;2.25;0.75;;;;;;;19.18;45.63;102148.25;4973193;28;102913;-31
2023/04/30 15:24:56;;;;;;;0.95;0.68;;;;;;;19.27;46.01;102148.41;4974883;28;97387;-31
2023/04/30 15:27:22;;;;;;;0.82;0.70;;;;;;;19.33;44.87;102154.41;4973567;28;96596;-31
2023/04/30 15:29:47;;;;;;;2.05;0.93;;;;;;;19.23;45.10;102149.63;4975029;28;96797;-31
2023/04/30 15:32:13;;;;;;;1.10;0.60;;;;;;;19.25;45.70;102141.28;4975123;28;97385;-31
2023/04/30 15:34:38;;;;;;;18.08;2.85;;;;;;;19.32;43.92;102139.81;4974699;28;97883;-32
2023/04/30 15:37:04;;;;;;;1.90;0.82;;;;;;;19.30;45.25;102145.41;4974742;28;96615;-32
2023/04/30 15:39:30;;;;;;;8.93;1.60;;;;;;;19.30;44.36;102144.53;4975002;28;96734;-32
2023/04/30 15:41:55;;;;;;;1.58;0.90;;;;;;;19.24;45.68;102145.91;4974289;28;99511;-31
2023/04/30 15:44:20;;;;;;;1.65;0.80;;;;;;;19.25;45.28;102138.53;4974329;28;99261;-32
2023/04/30 15:46:46;;;;;;;1.50;0.95;;;;;;;19.13;44.47;102136.75;4974473;28;96737;-32
2023/04/30 15:49:12;;;;;;;1.38;0.93;;;;;;;18.98;44.83;102142.41;4974774;28;96776;-32
2023/04/30 15:51:37;;;;;;;1.75;0.85;;;;;;;18.93;46.10;102133.66;4974528;28;97492;-31
2023/04/30 15:54:06;;;;;;;3.17;0.77;;;;;;;19.03;46.03;102126.47;4974606;28;99351;-32
2023/04/30 15:56:34;;;;;;;1.40;0.65;;;;;;;18.96;45.96;102127.06;4973103;28;96614;-31
2023/04/30 15:59:00;;;;;;;1.63;0.70;;;;;;;18.89;45.37;102130.25;4973081;28;96742;-31
2023/04/30 16:01:25;;;;;;;0.82;0.50;;;;;;;18.83;44.56;102128.00;4973970;28;98016;-32
2023/04/30 16:03:51;;;;;;;1.02;0.60;;;;;;;18.72;44.71;102116.91;4974108;28;99200;-33
2023/04/30 16:06:16;;;;;;;1.10;0.60;;;;;;;18.60;44.93;102115.97;4974450;28;96664;-31
2023/04/30 16:08:43;;;;;;;0.57;0.43;;;;;;;18.56;45.96;102114.44;4974455;28;96854;-31
2023/04/30 16:11:09;;;;;;;1.35;0.85;;;;;;;18.65;44.88;102119.25;4972878;28;101117;-31
2023/04/30 16:13:34;;;;;;;1.02;0.70;;;;;;;18.62;45.22;102107.63;4973827;28;99303;-32
2023/04/30 16:16:00;;;;;;;2.28;1.10;;;;;;;18.53;45.40;102103.72;4974265;28;96553;-31
2023/04/30 16:18:28;;;;;;;1.80;0.73;;;;;;;18.54;45.23;102101.84;4974678;28;96812;-31
2023/04/30 16:20:54;;;;;;;1.63;0.65;;;;;;;18.59;45.88;102110.59;4973869;28;99984;-31
2023/04/30 16:23:19;;;;;;;0.75;0.50;;;;;;;18.56;44.59;102113.56;4973885;28;99182;-31
2023/04/30 16:25:45;;;;;;;1.20;0.70;;;;;;;18.50;46.08;102101.19;4974058;28;96491;-32
2023/04/30 16:28:10;;;;;;;0.73;0.60;;;;;;;18.56;45.68;102103.47;4973841;28;96958;-31
2023/04/30 16:30:36;;;;;;;1.08;0.50;;;;;;;18.56;45.67;102103.47;4973911;28;98062;-31
2023/04/30 16:33:01;;;;;;;0.98;0.60;;;;;;;18.51;45.45;102102.94;4976199;28;97371;-31
2023/04/30 16:35:27;;;;;;;0.43;0.43;;;;;;;18.50;45.89;102101.19;4977360;28;96542;-31
2023/04/30 16:37:53;;;;;;;1.17;0.30;;;;;;;18.43;45.12;102095.28;4977546;28;96923;-32
2023/04/30 16:40:18;;;;;;;0.38;0.25;;;;;;;18.39;43.67;102099.25;4975816;28;100885;-31
2023/04/30 16:42:44;;;;;;;1.30;0.43;;;;;;;18.36;44.98;102096.75;4977503;28;97279;-31
2023/04/30 16:45:09;;;;;;;2.83;0.50;;;;;;;18.43;45.48;102092.56;4977356;28;96572;-31
2023/04/30 16:47:35;;;;;;;0.40;0.40;;;;;;;18.46;45.94;102089.56;4977334;28;96925;-31
2023/04/30 16:50:00;;;;;;;0.60;0.50;;;;;;;18.42;45.39;102084.41;4976652;28;98150;-32
2023/04/30 16:52:27;;;;;;;0.80;0.47;;;;;;;18.38;45.53;102085.66;4976745;28;99384;-32
2023/04/30 16:54:52;;;;;;;1.45;0.70;;;;;;;18.35;45.68;102088.63;4975959;28;96721;-31
2023/04/30 16:57:18;;;;;;;0.60;0.47;;;;;;;18.33;44.70;102090.59;4976827;28;96852;-33
2023/04/30 16:59:44;;;;;;;0.65;0.40;;;;;;;18.27;44.69;102085.59;4976489;28;99685;-31
2023/04/30 17:02:10;;;;;;;0.57;0.47;;;;;;;18.22;44.44;102075.81;4976729;28;99338;-31
2023/04/30 17:04:36;;;;;;;1.63;0.88;;;;;;;18.11;44.19;102080.34;4975636;28;96595;-31
2023/04/30 17:07:01;;;;;;;1.35;0.95;;;;;;;18.09;45.47;102079.56;4977197;28;96849;-31
2023/04/30 17:09:28;;;;;;;1.48;0.80;;;;;;;18.10;46.49;102064.91;4976820;28;97723;-31
2023/04/30 17:11:54;;;;;;;1.08;0.80;;;;;;;18.04;45.74;102071.69;4975063;28;100884;-32
2023/04/30 17:14:19;;;;;;;1.00;0.75;;;;;;;17.89;46.18;102070.09;4974984;28;96585;-32
2023/04/30 17:16:45;;;;;;;2.92;0.68;;;;;;;17.91;46.36;102071.72;4977061;28;96784;-31
2023/04/30 17:19:11;;;;;;;1.33;0.50;;;;;;;17.88;46.92;102068.34;4976227;28;99210;-33
2023/04/30 17:21:36;;;;;;;1.52;0.68;;;;;;;17.88;46.98;102065.59;4976338;28;99105;-32
2023/04/30 17:24:02;;;;;;;0.40;0.38;;;;;;;17.84;46.86;102062.19;4976677;28;96552;-31
2023/04/30 17:26:28;;;;;;;2.88;0.65;;;;;;;17.81;46.93;102066.03;4975157;28;96831;-33
2023/04/30 17:28:53;;;;;;;0.70;0.50;;;;;;;17.81;47.16;102068.78;4976407;28;97301;-31
2023/04/30 17:31:18;;;;;;;2.00;0.90;;;;;;;17.75;46.95;102058.22;4976641;28;98006;-31
2023/04/30 17:33:44;;;;;;;1.52;0.60;;;;;;;17.74;47.30;102050.13;4976753;28;96596;-33
2023/04/30 17:36:11;;;;;;;0.77;0.55;;;;;;;17.72;47.64;102050.22;4976436;28;96855;-32
2023/04/30 17:38:36;;;;;;;0.43;0.40;;;;;;;17.71;47.39;102056.72;4974346;28;100867;-31
2023/04/30 17:41:02;;;;;;;1.20;0.50;;;;;;;17.66;47.31;102058.88;4975994;28;97903;-31
2023/04/30 17:43:28;;;;;;;0.88;0.50;;;;;;;17.54;46.92;102059.78;4974835;28;96713;-31
2023/04/30 17:45:54;;;;;;;2.38;0.70;;;;;;;17.52;47.49;102053.50;4974852;28;97017;-31
2023/04/30 17:48:20;;;;;;;3.25;0.80;;;;;;;17.41;47.41;102048.81;4976136;28;97959;-31
2023/04/30 17:50:46;;;;;;;1.60;0.52;;;;;;;17.40;47.31;102049.81;4976364;28;97327;-32
2023/04/30 17:53:11;;;;;;;1.13;0.55;;;;;;;17.39;47.89;102053.53;4976133;28;96520;-32
2023/04/30 17:55:36;;;;;;;0.30;0.30;;;;;;;17.41;47.83;102048.81;4976535;28;96764;-32
2023/04/30 17:58:02;;;;;;;0.90;0.60;;;;;;;17.40;47.48;102047.94;4975938;28;97887;-32
2023/04/30 18:00:29;;;;;;;0.60;0.40;;;;;;;17.38;47.48;102049.03;4974496;28;101425;-32
2023/04/30 18:02:54;;;;;;;0.38;0.30;;;;;;;17.36;47.94;102048.28;4974328;28;96596;-31
2023/04/30 18:05:20;;;;;;;0.40;0.40;;;;;;;17.32;48.29;102046.72;4976084;28;96759;-31
2023/04/30 18:07:46;;;;;;;0.73;0.47;;;;;;;17.24;48.46;102047.28;4975725;28;99320;-31
2023/04/30 18:10:11;;;;;;;1.45;0.85;;;;;;;17.23;48.20;102040.03;4975415;28;99642;-32